METAR Data
IDs: Format: Raw Decoded Include TAF

Data at: 1305 UTC 26 Feb 2021

LELL 261300Z 27003KT 230V320 8000 FEW015 SCT022 15/09 Q1029